sensor_id;sensor_type;location;lat;lon;timestamp;P1;durP1;ratioP1;P2;durP2;ratioP2
69625;SDS011;56847;51.984;5.088;2022-12-17T00:00:47;100.13;;;37.95;;
69625;SDS011;56847;51.984;5.088;2022-12-17T00:03:33;87.87;;;35.10;;
69625;SDS011;56847;51.984;5.088;2022-12-17T00:06:22;96.80;;;38.83;;
69625;SDS011;56847;51.984;5.088;2022-12-17T00:09:08;92.35;;;35.45;;
69625;SDS011;56847;51.984;5.088;2022-12-17T00:11:54;93.10;;;37.47;;
69625;SDS011;56847;51.984;5.088;2022-12-17T00:14:40;111.15;;;40.03;;
69625;SDS011;56847;51.984;5.088;2022-12-17T00:17:26;85.83;;;35.37;;
69625;SDS011;56847;51.984;5.088;2022-12-17T00:20:11;105.65;;;39.72;;
69625;SDS011;56847;51.984;5.088;2022-12-17T00:23:02;108.20;;;42.00;;
69625;SDS011;56847;51.984;5.088;2022-12-17T00:25:52;96.43;;;37.80;;
69625;SDS011;56847;51.984;5.088;2022-12-17T00:28:39;97.20;;;38.10;;
69625;SDS011;56847;51.984;5.088;2022-12-17T00:31:27;98.83;;;38.70;;
69625;SDS011;56847;51.984;5.088;2022-12-17T00:34:14;95.85;;;36.75;;
69625;SDS011;56847;51.984;5.088;2022-12-17T00:37:00;90.55;;;36.58;;
69625;SDS011;56847;51.984;5.088;2022-12-17T00:39:48;89.38;;;34.97;;
69625;SDS011;56847;51.984;5.088;2022-12-17T00:42:33;85.15;;;35.45;;
69625;SDS011;56847;51.984;5.088;2022-12-17T00:45:21;85.07;;;36.53;;
69625;SDS011;56847;51.984;5.088;2022-12-17T00:48:07;83.93;;;36.25;;
69625;SDS011;56847;51.984;5.088;2022-12-17T00:50:56;89.50;;;36.95;;
69625;SDS011;56847;51.984;5.088;2022-12-17T00:53:51;88.53;;;34.97;;
69625;SDS011;56847;51.984;5.088;2022-12-17T00:56:36;82.38;;;33.88;;
69625;SDS011;56847;51.984;5.088;2022-12-17T00:59:22;86.93;;;35.80;;
69625;SDS011;56847;51.984;5.088;2022-12-17T01:02:07;88.43;;;35.38;;
69625;SDS011;56847;51.984;5.088;2022-12-17T01:04:54;76.75;;;33.33;;
69625;SDS011;56847;51.984;5.088;2022-12-17T01:07:40;84.13;;;34.22;;
69625;SDS011;56847;51.984;5.088;2022-12-17T01:10:26;78.05;;;33.40;;
69625;SDS011;56847;51.984;5.088;2022-12-17T01:13:13;76.73;;;31.37;;
69625;SDS011;56847;51.984;5.088;2022-12-17T01:16:10;80.28;;;32.60;;
69625;SDS011;56847;51.984;5.088;2022-12-17T01:19:00;88.13;;;33.30;;
69625;SDS011;56847;51.984;5.088;2022-12-17T01:21:47;81.13;;;32.88;;
69625;SDS011;56847;51.984;5.088;2022-12-17T01:24:32;79.10;;;32.90;;
69625;SDS011;56847;51.984;5.088;2022-12-17T01:27:21;85.50;;;34.77;;
69625;SDS011;56847;51.984;5.088;2022-12-17T01:30:07;73.43;;;30.45;;
69625;SDS011;56847;51.984;5.088;2022-12-17T01:32:58;78.43;;;33.63;;
69625;SDS011;56847;51.984;5.088;2022-12-17T01:35:53;76.18;;;31.33;;
69625;SDS011;56847;51.984;5.088;2022-12-17T01:38:39;85.45;;;32.60;;
69625;SDS011;56847;51.984;5.088;2022-12-17T01:41:25;81.27;;;33.20;;
69625;SDS011;56847;51.984;5.088;2022-12-17T01:47:49;77.35;;;32.95;;
69625;SDS011;56847;51.984;5.088;2022-12-17T01:50:52;87.53;;;33.90;;
69625;SDS011;56847;51.984;5.088;2022-12-17T01:53:45;83.63;;;33.70;;
69625;SDS011;56847;51.984;5.088;2022-12-17T01:56:37;86.33;;;32.47;;
69625;SDS011;56847;51.984;5.088;2022-12-17T02:00:10;83.90;;;34.33;;
69625;SDS011;56847;51.984;5.088;2022-12-17T02:02:41;83.80;;;34.40;;
69625;SDS011;56847;51.984;5.088;2022-12-17T02:08:47;80.80;;;33.83;;
69625;SDS011;56847;51.984;5.088;2022-12-17T02:14:40;83.07;;;35.03;;
69625;SDS011;56847;51.984;5.088;2022-12-17T02:17:29;71.13;;;32.10;;
69625;SDS011;56847;51.984;5.088;2022-12-17T02:20:33;83.85;;;33.75;;
69625;SDS011;56847;51.984;5.088;2022-12-17T02:23:37;66.63;;;30.17;;
69625;SDS011;56847;51.984;5.088;2022-12-17T02:26:41;80.40;;;33.67;;
69625;SDS011;56847;51.984;5.088;2022-12-17T02:29:34;84.10;;;32.85;;
69625;SDS011;56847;51.984;5.088;2022-12-17T02:32:29;82.80;;;34.38;;
69625;SDS011;56847;51.984;5.088;2022-12-17T02:35:22;76.90;;;33.00;;
69625;SDS011;56847;51.984;5.088;2022-12-17T02:38:16;79.30;;;33.65;;
69625;SDS011;56847;51.984;5.088;2022-12-17T02:41:05;72.90;;;32.23;;
69625;SDS011;56847;51.984;5.088;2022-12-17T02:43:55;73.15;;;30.77;;
69625;SDS011;56847;51.984;5.088;2022-12-17T02:46:42;81.90;;;32.60;;
69625;SDS011;56847;51.984;5.088;2022-12-17T02:49:27;76.95;;;31.58;;
69625;SDS011;56847;51.984;5.088;2022-12-17T02:52:14;75.32;;;32.67;;
69625;SDS011;56847;51.984;5.088;2022-12-17T02:55:02;83.47;;;33.50;;
69625;SDS011;56847;51.984;5.088;2022-12-17T02:57:49;67.88;;;31.23;;
69625;SDS011;56847;51.984;5.088;2022-12-17T03:00:42;74.20;;;31.90;;
69625;SDS011;56847;51.984;5.088;2022-12-17T03:03:28;73.18;;;29.83;;
69625;SDS011;56847;51.984;5.088;2022-12-17T03:06:16;81.88;;;32.65;;
69625;SDS011;56847;51.984;5.088;2022-12-17T03:09:03;77.30;;;31.77;;
69625;SDS011;56847;51.984;5.088;2022-12-17T03:11:49;86.65;;;33.47;;
69625;SDS011;56847;51.984;5.088;2022-12-17T03:14:35;82.47;;;35.65;;
69625;SDS011;56847;51.984;5.088;2022-12-17T03:17:21;78.90;;;34.42;;
69625;SDS011;56847;51.984;5.088;2022-12-17T03:20:07;80.80;;;31.92;;
69625;SDS011;56847;51.984;5.088;2022-12-17T03:22:59;72.03;;;30.90;;
69625;SDS011;56847;51.984;5.088;2022-12-17T03:25:50;78.88;;;30.92;;
69625;SDS011;56847;51.984;5.088;2022-12-17T03:28:36;75.90;;;32.97;;
69625;SDS011;56847;51.984;5.088;2022-12-17T03:31:22;83.03;;;32.85;;
69625;SDS011;56847;51.984;5.088;2022-12-17T03:34:12;80.95;;;34.67;;
69625;SDS011;56847;51.984;5.088;2022-12-17T03:36:58;78.53;;;34.50;;
69625;SDS011;56847;51.984;5.088;2022-12-17T03:39:43;77.60;;;33.65;;
69625;SDS011;56847;51.984;5.088;2022-12-17T03:42:29;78.25;;;34.08;;
69625;SDS011;56847;51.984;5.088;2022-12-17T03:45:17;81.82;;;35.42;;
69625;SDS011;56847;51.984;5.088;2022-12-17T03:48:10;81.10;;;34.90;;
69625;SDS011;56847;51.984;5.088;2022-12-17T03:50:58;83.63;;;36.13;;
69625;SDS011;56847;51.984;5.088;2022-12-17T03:53:45;85.50;;;36.85;;
69625;SDS011;56847;51.984;5.088;2022-12-17T03:56:38;80.65;;;35.92;;
69625;SDS011;56847;51.984;5.088;2022-12-17T03:59:24;78.63;;;34.83;;
69625;SDS011;56847;51.984;5.088;2022-12-17T04:02:09;77.30;;;34.83;;
69625;SDS011;56847;51.984;5.088;2022-12-17T04:04:55;71.77;;;34.43;;
69625;SDS011;56847;51.984;5.088;2022-12-17T04:07:46;80.15;;;33.15;;
69625;SDS011;56847;51.984;5.088;2022-12-17T04:10:32;71.80;;;32.92;;
69625;SDS011;56847;51.984;5.088;2022-12-17T04:13:24;73.40;;;34.38;;
69625;SDS011;56847;51.984;5.088;2022-12-17T04:16:11;76.60;;;33.42;;
69625;SDS011;56847;51.984;5.088;2022-12-17T04:18:56;74.63;;;33.47;;
69625;SDS011;56847;51.984;5.088;2022-12-17T04:21:42;76.80;;;34.30;;
69625;SDS011;56847;51.984;5.088;2022-12-17T04:24:28;77.82;;;36.42;;
69625;SDS011;56847;51.984;5.088;2022-12-17T04:27:14;79.32;;;34.05;;
69625;SDS011;56847;51.984;5.088;2022-12-17T04:30:02;77.13;;;35.85;;
69625;SDS011;56847;51.984;5.088;2022-12-17T04:32:49;70.13;;;29.93;;
69625;SDS011;56847;51.984;5.088;2022-12-17T04:35:35;78.45;;;31.65;;
69625;SDS011;56847;51.984;5.088;2022-12-17T04:38:21;96.47;;;38.08;;
69625;SDS011;56847;51.984;5.088;2022-12-17T04:41:10;80.50;;;34.00;;
69625;SDS011;56847;51.984;5.088;2022-12-17T04:43:56;89.60;;;38.25;;
69625;SDS011;56847;51.984;5.088;2022-12-17T04:47:00;86.97;;;35.97;;
69625;SDS011;56847;51.984;5.088;2022-12-17T04:49:47;89.85;;;34.78;;
69625;SDS011;56847;51.984;5.088;2022-12-17T04:52:33;94.00;;;38.03;;
69625;SDS011;56847;51.984;5.088;2022-12-17T04:55:20;93.80;;;36.08;;
69625;SDS011;56847;51.984;5.088;2022-12-17T04:58:08;91.70;;;37.53;;
69625;SDS011;56847;51.984;5.088;2022-12-17T05:00:54;88.23;;;35.60;;
69625;SDS011;56847;51.984;5.088;2022-12-17T05:03:54;86.85;;;34.63;;
69625;SDS011;56847;51.984;5.088;2022-12-17T05:06:42;92.25;;;38.53;;
69625;SDS011;56847;51.984;5.088;2022-12-17T05:09:28;80.35;;;33.00;;
69625;SDS011;56847;51.984;5.088;2022-12-17T05:12:14;87.32;;;36.17;;
69625;SDS011;56847;51.984;5.088;2022-12-17T05:14:59;84.80;;;36.07;;
69625;SDS011;56847;51.984;5.088;2022-12-17T05:17:45;86.57;;;37.80;;
69625;SDS011;56847;51.984;5.088;2022-12-17T05:20:31;104.35;;;40.30;;
69625;SDS011;56847;51.984;5.088;2022-12-17T05:23:17;85.50;;;33.97;;
69625;SDS011;56847;51.984;5.088;2022-12-17T05:26:04;95.30;;;37.83;;
69625;SDS011;56847;51.984;5.088;2022-12-17T05:29:04;65.97;;;28.03;;
69625;SDS011;56847;51.984;5.088;2022-12-17T05:31:50;95.22;;;37.83;;
69625;SDS011;56847;51.984;5.088;2022-12-17T05:34:36;99.03;;;40.05;;
69625;SDS011;56847;51.984;5.088;2022-12-17T05:37:22;95.80;;;39.50;;
69625;SDS011;56847;51.984;5.088;2022-12-17T05:40:08;82.45;;;35.33;;
69625;SDS011;56847;51.984;5.088;2022-12-17T05:42:58;77.50;;;34.40;;
69625;SDS011;56847;51.984;5.088;2022-12-17T05:45:45;77.32;;;34.10;;
69625;SDS011;56847;51.984;5.088;2022-12-17T05:48:31;84.07;;;35.80;;
69625;SDS011;56847;51.984;5.088;2022-12-17T05:51:21;82.75;;;36.22;;
69625;SDS011;56847;51.984;5.088;2022-12-17T05:54:13;81.18;;;35.10;;
69625;SDS011;56847;51.984;5.088;2022-12-17T05:57:10;77.40;;;34.50;;
69625;SDS011;56847;51.984;5.088;2022-12-17T05:59:56;91.97;;;35.85;;
69625;SDS011;56847;51.984;5.088;2022-12-17T06:02:41;78.13;;;36.05;;
69625;SDS011;56847;51.984;5.088;2022-12-17T06:05:27;79.97;;;35.75;;
69625;SDS011;56847;51.984;5.088;2022-12-17T06:08:13;77.20;;;35.97;;
69625;SDS011;56847;51.984;5.088;2022-12-17T06:10:59;79.40;;;35.43;;
69625;SDS011;56847;51.984;5.088;2022-12-17T06:13:45;86.68;;;36.13;;
69625;SDS011;56847;51.984;5.088;2022-12-17T06:16:34;78.57;;;34.17;;
69625;SDS011;56847;51.984;5.088;2022-12-17T06:19:20;77.85;;;33.45;;
69625;SDS011;56847;51.984;5.088;2022-12-17T06:22:09;81.50;;;35.50;;
69625;SDS011;56847;51.984;5.088;2022-12-17T06:24:55;85.53;;;34.47;;
69625;SDS011;56847;51.984;5.088;2022-12-17T06:27:41;79.78;;;34.92;;
69625;SDS011;56847;51.984;5.088;2022-12-17T06:30:27;85.32;;;36.38;;
69625;SDS011;56847;51.984;5.088;2022-12-17T06:33:13;95.20;;;37.17;;
69625;SDS011;56847;51.984;5.088;2022-12-17T06:36:00;81.40;;;34.47;;
69625;SDS011;56847;51.984;5.088;2022-12-17T06:38:48;84.87;;;35.00;;
69625;SDS011;56847;51.984;5.088;2022-12-17T06:41:38;75.68;;;32.72;;
69625;SDS011;56847;51.984;5.088;2022-12-17T06:44:30;76.13;;;33.88;;
69625;SDS011;56847;51.984;5.088;2022-12-17T06:47:16;80.75;;;32.30;;
69625;SDS011;56847;51.984;5.088;2022-12-17T06:50:08;83.57;;;35.17;;
69625;SDS011;56847;51.984;5.088;2022-12-17T06:52:58;84.87;;;34.17;;
69625;SDS011;56847;51.984;5.088;2022-12-17T06:55:45;98.57;;;38.22;;
69625;SDS011;56847;51.984;5.088;2022-12-17T06:58:31;83.75;;;36.40;;
69625;SDS011;56847;51.984;5.088;2022-12-17T07:01:17;94.57;;;36.03;;
69625;SDS011;56847;51.984;5.088;2022-12-17T07:04:03;92.47;;;37.15;;
69625;SDS011;56847;51.984;5.088;2022-12-17T07:06:49;106.67;;;36.57;;
69625;SDS011;56847;51.984;5.088;2022-12-17T07:09:35;83.13;;;33.25;;
69625;SDS011;56847;51.984;5.088;2022-12-17T07:12:22;97.13;;;36.92;;
69625;SDS011;56847;51.984;5.088;2022-12-17T07:15:08;90.65;;;35.60;;
69625;SDS011;56847;51.984;5.088;2022-12-17T07:18:00;115.63;;;37.20;;
69625;SDS011;56847;51.984;5.088;2022-12-17T07:20:47;95.17;;;37.00;;
69625;SDS011;56847;51.984;5.088;2022-12-17T07:23:34;91.03;;;35.75;;
69625;SDS011;56847;51.984;5.088;2022-12-17T07:26:29;99.53;;;37.75;;
69625;SDS011;56847;51.984;5.088;2022-12-17T07:29:18;95.32;;;38.90;;
69625;SDS011;56847;51.984;5.088;2022-12-17T07:32:04;100.82;;;39.47;;
69625;SDS011;56847;51.984;5.088;2022-12-17T07:34:49;105.50;;;38.67;;
69625;SDS011;56847;51.984;5.088;2022-12-17T07:37:36;106.13;;;38.13;;
69625;SDS011;56847;51.984;5.088;2022-12-17T07:40:22;100.53;;;35.58;;
69625;SDS011;56847;51.984;5.088;2022-12-17T07:43:09;102.10;;;38.58;;
69625;SDS011;56847;51.984;5.088;2022-12-17T07:45:55;93.25;;;35.00;;
69625;SDS011;56847;51.984;5.088;2022-12-17T07:48:44;88.57;;;33.07;;
69625;SDS011;56847;51.984;5.088;2022-12-17T07:51:31;97.18;;;37.42;;
69625;SDS011;56847;51.984;5.088;2022-12-17T07:54:17;100.88;;;37.40;;
69625;SDS011;56847;51.984;5.088;2022-12-17T07:57:03;96.05;;;37.05;;
69625;SDS011;56847;51.984;5.088;2022-12-17T07:59:52;95.40;;;35.90;;
69625;SDS011;56847;51.984;5.088;2022-12-17T08:02:38;105.73;;;37.17;;
69625;SDS011;56847;51.984;5.088;2022-12-17T08:05:24;89.30;;;32.00;;
69625;SDS011;56847;51.984;5.088;2022-12-17T08:08:10;91.82;;;36.80;;
69625;SDS011;56847;51.984;5.088;2022-12-17T08:11:00;96.93;;;36.05;;
69625;SDS011;56847;51.984;5.088;2022-12-17T08:13:48;99.60;;;37.15;;
69625;SDS011;56847;51.984;5.088;2022-12-17T08:16:38;98.03;;;36.80;;
69625;SDS011;56847;51.984;5.088;2022-12-17T08:19:24;94.68;;;35.22;;
69625;SDS011;56847;51.984;5.088;2022-12-17T08:22:10;98.72;;;37.20;;
69625;SDS011;56847;51.984;5.088;2022-12-17T08:24:56;89.60;;;33.78;;
69625;SDS011;56847;51.984;5.088;2022-12-17T08:27:43;101.68;;;37.50;;
69625;SDS011;56847;51.984;5.088;2022-12-17T08:30:40;105.97;;;35.30;;
69625;SDS011;56847;51.984;5.088;2022-12-17T08:33:29;96.63;;;33.35;;
69625;SDS011;56847;51.984;5.088;2022-12-17T08:36:20;92.47;;;34.35;;
69625;SDS011;56847;51.984;5.088;2022-12-17T08:39:05;102.72;;;35.00;;
69625;SDS011;56847;51.984;5.088;2022-12-17T08:41:51;94.32;;;35.95;;
69625;SDS011;56847;51.984;5.088;2022-12-17T08:44:40;92.13;;;35.27;;
69625;SDS011;56847;51.984;5.088;2022-12-17T08:47:25;93.38;;;32.17;;
69625;SDS011;56847;51.984;5.088;2022-12-17T08:50:13;92.03;;;33.45;;
69625;SDS011;56847;51.984;5.088;2022-12-17T08:53:00;100.28;;;36.03;;
69625;SDS011;56847;51.984;5.088;2022-12-17T08:55:48;96.13;;;37.42;;
69625;SDS011;56847;51.984;5.088;2022-12-17T08:58:33;105.60;;;37.53;;
69625;SDS011;56847;51.984;5.088;2022-12-17T09:01:24;90.18;;;34.42;;
69625;SDS011;56847;51.984;5.088;2022-12-17T09:04:10;94.88;;;37.53;;
69625;SDS011;56847;51.984;5.088;2022-12-17T09:06:56;87.88;;;34.60;;
69625;SDS011;56847;51.984;5.088;2022-12-17T09:09:42;90.55;;;34.17;;
69625;SDS011;56847;51.984;5.088;2022-12-17T09:12:28;86.27;;;35.07;;
69625;SDS011;56847;51.984;5.088;2022-12-17T09:15:14;102.80;;;35.22;;
69625;SDS011;56847;51.984;5.088;2022-12-17T09:18:00;95.28;;;35.10;;
69625;SDS011;56847;51.984;5.088;2022-12-17T09:20:51;99.47;;;35.28;;
69625;SDS011;56847;51.984;5.088;2022-12-17T09:23:42;85.07;;;33.42;;
69625;SDS011;56847;51.984;5.088;2022-12-17T09:26:27;96.97;;;34.27;;
69625;SDS011;56847;51.984;5.088;2022-12-17T09:29:14;96.30;;;35.13;;
69625;SDS011;56847;51.984;5.088;2022-12-17T09:32:00;92.90;;;38.85;;
69625;SDS011;56847;51.984;5.088;2022-12-17T09:34:45;96.55;;;37.97;;
69625;SDS011;56847;51.984;5.088;2022-12-17T09:37:31;83.28;;;35.00;;
69625;SDS011;56847;51.984;5.088;2022-12-17T09:40:22;90.20;;;36.57;;
69625;SDS011;56847;51.984;5.088;2022-12-17T09:43:52;99.75;;;37.88;;
69625;SDS011;56847;51.984;5.088;2022-12-17T09:49:42;95.10;;;35.30;;
69625;SDS011;56847;51.984;5.088;2022-12-17T09:52:30;92.30;;;37.88;;
69625;SDS011;56847;51.984;5.088;2022-12-17T09:58:22;92.15;;;36.33;;
69625;SDS011;56847;51.984;5.088;2022-12-17T10:01:12;90.88;;;35.58;;
69625;SDS011;56847;51.984;5.088;2022-12-17T10:04:06;98.45;;;36.63;;
69625;SDS011;56847;51.984;5.088;2022-12-17T10:07:18;95.32;;;37.20;;
69625;SDS011;56847;51.984;5.088;2022-12-17T10:13:25;90.13;;;36.05;;
69625;SDS011;56847;51.984;5.088;2022-12-17T10:16:19;85.75;;;36.83;;
69625;SDS011;56847;51.984;5.088;2022-12-17T10:19:16;92.00;;;35.63;;
69625;SDS011;56847;51.984;5.088;2022-12-17T10:22:13;91.07;;;34.42;;
69625;SDS011;56847;51.984;5.088;2022-12-17T10:25:21;89.80;;;36.13;;
69625;SDS011;56847;51.984;5.088;2022-12-17T10:28:11;96.13;;;37.88;;
69625;SDS011;56847;51.984;5.088;2022-12-17T10:31:00;91.32;;;36.13;;
69625;SDS011;56847;51.984;5.088;2022-12-17T10:33:53;92.28;;;36.63;;
69625;SDS011;56847;51.984;5.088;2022-12-17T10:36:48;86.10;;;36.92;;
69625;SDS011;56847;51.984;5.088;2022-12-17T10:39:37;95.07;;;34.63;;
69625;SDS011;56847;51.984;5.088;2022-12-17T10:42:27;95.15;;;34.42;;
69625;SDS011;56847;51.984;5.088;2022-12-17T10:45:27;96.85;;;37.25;;
69625;SDS011;56847;51.984;5.088;2022-12-17T10:48:23;96.15;;;35.50;;
69625;SDS011;56847;51.984;5.088;2022-12-17T10:51:30;103.95;;;38.40;;
69625;SDS011;56847;51.984;5.088;2022-12-17T10:54:30;106.90;;;39.13;;
69625;SDS011;56847;51.984;5.088;2022-12-17T11:03:02;113.50;;;38.08;;
69625;SDS011;56847;51.984;5.088;2022-12-17T11:05:51;104.60;;;38.05;;
69625;SDS011;56847;51.984;5.088;2022-12-17T11:08:39;101.50;;;37.77;;
69625;SDS011;56847;51.984;5.088;2022-12-17T11:11:27;110.03;;;38.25;;
69625;SDS011;56847;51.984;5.088;2022-12-17T11:14:16;110.78;;;41.47;;
69625;SDS011;56847;51.984;5.088;2022-12-17T11:17:02;90.15;;;31.02;;
69625;SDS011;56847;51.984;5.088;2022-12-17T11:20:00;109.07;;;38.92;;
69625;SDS011;56847;51.984;5.088;2022-12-17T11:22:51;102.27;;;37.50;;
69625;SDS011;56847;51.984;5.088;2022-12-17T11:26:03;110.53;;;38.65;;
69625;SDS011;56847;51.984;5.088;2022-12-17T11:28:54;102.28;;;38.72;;
69625;SDS011;56847;51.984;5.088;2022-12-17T11:31:49;107.53;;;37.40;;
69625;SDS011;56847;51.984;5.088;2022-12-17T11:42:01;102.03;;;36.13;;
69625;SDS011;56847;51.984;5.088;2022-12-17T11:47:58;84.03;;;33.05;;
69625;SDS011;56847;51.984;5.088;2022-12-17T11:50:53;110.90;;;39.13;;
69625;SDS011;56847;51.984;5.088;2022-12-17T11:53:56;111.03;;;40.57;;
69625;SDS011;56847;51.984;5.088;2022-12-17T11:57:05;106.47;;;39.60;;
69625;SDS011;56847;51.984;5.088;2022-12-17T12:00:02;102.15;;;39.05;;
69625;SDS011;56847;51.984;5.088;2022-12-17T12:06:00;116.88;;;41.30;;
69625;SDS011;56847;51.984;5.088;2022-12-17T12:08:58;109.90;;;38.57;;
69625;SDS011;56847;51.984;5.088;2022-12-17T12:14:53;101.47;;;39.42;;
69625;SDS011;56847;51.984;5.088;2022-12-17T12:17:56;99.20;;;36.97;;
69625;SDS011;56847;51.984;5.088;2022-12-17T12:27:36;102.88;;;36.22;;
69625;SDS011;56847;51.984;5.088;2022-12-17T12:36:50;81.25;;;31.52;;
69625;SDS011;56847;51.984;5.088;2022-12-17T12:46:09;92.88;;;36.33;;
69625;SDS011;56847;51.984;5.088;2022-12-17T12:49:15;91.80;;;35.47;;
69625;SDS011;56847;51.984;5.088;2022-12-17T12:52:20;96.72;;;37.33;;
69625;SDS011;56847;51.984;5.088;2022-12-17T12:55:10;92.33;;;36.33;;
69625;SDS011;56847;51.984;5.088;2022-12-17T13:01:57;104.15;;;37.80;;
69625;SDS011;56847;51.984;5.088;2022-12-17T13:04:57;101.43;;;36.55;;
69625;SDS011;56847;51.984;5.088;2022-12-17T13:07:45;98.07;;;36.95;;
69625;SDS011;56847;51.984;5.088;2022-12-17T13:10:28;96.50;;;34.60;;
69625;SDS011;56847;51.984;5.088;2022-12-17T13:16:03;90.00;;;34.03;;
69625;SDS011;56847;51.984;5.088;2022-12-17T13:22:47;95.72;;;36.47;;
69625;SDS011;56847;51.984;5.088;2022-12-17T13:24:52;88.27;;;35.70;;
69625;SDS011;56847;51.984;5.088;2022-12-17T13:27:30;87.50;;;34.38;;
69625;SDS011;56847;51.984;5.088;2022-12-17T13:43:41;90.55;;;34.13;;
69625;SDS011;56847;51.984;5.088;2022-12-17T13:46:28;78.60;;;29.70;;
69625;SDS011;56847;51.984;5.088;2022-12-17T13:51:47;86.20;;;31.73;;
69625;SDS011;56847;51.984;5.088;2022-12-17T13:54:31;85.32;;;32.85;;
69625;SDS011;56847;51.984;5.088;2022-12-17T13:57:06;89.88;;;32.03;;
69625;SDS011;56847;51.984;5.088;2022-12-17T13:59:57;80.57;;;31.08;;
69625;SDS011;56847;51.984;5.088;2022-12-17T14:02:37;83.57;;;33.38;;
69625;SDS011;56847;51.984;5.088;2022-12-17T14:05:21;90.27;;;31.10;;
69625;SDS011;56847;51.984;5.088;2022-12-17T14:08:04;95.35;;;32.85;;
69625;SDS011;56847;51.984;5.088;2022-12-17T14:10:31;94.22;;;33.70;;
69625;SDS011;56847;51.984;5.088;2022-12-17T14:13:03;101.40;;;33.05;;
69625;SDS011;56847;51.984;5.088;2022-12-17T14:15:32;92.78;;;34.97;;
69625;SDS011;56847;51.984;5.088;2022-12-17T14:18:00;84.23;;;31.03;;
69625;SDS011;56847;51.984;5.088;2022-12-17T14:23:33;84.40;;;30.40;;
69625;SDS011;56847;51.984;5.088;2022-12-17T14:25:57;83.30;;;29.98;;
69625;SDS011;56847;51.984;5.088;2022-12-17T14:28:31;80.93;;;30.15;;
69625;SDS011;56847;51.984;5.088;2022-12-17T14:34:00;80.55;;;30.38;;
69625;SDS011;56847;51.984;5.088;2022-12-17T14:36:46;78.55;;;29.67;;
69625;SDS011;56847;51.984;5.088;2022-12-17T14:39:30;84.53;;;31.70;;
69625;SDS011;56847;51.984;5.088;2022-12-17T14:42:06;83.93;;;31.67;;
69625;SDS011;56847;51.984;5.088;2022-12-17T14:47:53;77.47;;;27.52;;
69625;SDS011;56847;51.984;5.088;2022-12-17T14:52:51;88.25;;;30.50;;
69625;SDS011;56847;51.984;5.088;2022-12-17T14:58:05;89.30;;;31.07;;
69625;SDS011;56847;51.984;5.088;2022-12-17T15:00:43;85.30;;;30.00;;
69625;SDS011;56847;51.984;5.088;2022-12-17T15:03:26;74.53;;;26.98;;
69625;SDS011;56847;51.984;5.088;2022-12-17T15:05:57;89.28;;;30.33;;
69625;SDS011;56847;51.984;5.088;2022-12-17T15:08:30;87.07;;;30.35;;
69625;SDS011;56847;51.984;5.088;2022-12-17T15:11:13;78.73;;;28.93;;
69625;SDS011;56847;51.984;5.088;2022-12-17T15:13:42;84.38;;;30.70;;
69625;SDS011;56847;51.984;5.088;2022-12-17T15:16:09;82.78;;;28.48;;
69625;SDS011;56847;51.984;5.088;2022-12-17T15:18:37;77.38;;;26.95;;
69625;SDS011;56847;51.984;5.088;2022-12-17T15:21:05;58.47;;;22.80;;
69625;SDS011;56847;51.984;5.088;2022-12-17T15:23:32;93.03;;;30.70;;
69625;SDS011;56847;51.984;5.088;2022-12-17T15:26:04;83.20;;;29.10;;
69625;SDS011;56847;51.984;5.088;2022-12-17T15:28:32;87.43;;;29.48;;
69625;SDS011;56847;51.984;5.088;2022-12-17T15:31:00;75.53;;;30.02;;
69625;SDS011;56847;51.984;5.088;2022-12-17T15:33:27;90.82;;;32.60;;
69625;SDS011;56847;51.984;5.088;2022-12-17T15:35:56;90.97;;;31.47;;
69625;SDS011;56847;51.984;5.088;2022-12-17T15:38:24;99.10;;;34.15;;
69625;SDS011;56847;51.984;5.088;2022-12-17T15:41:00;89.40;;;32.88;;
69625;SDS011;56847;51.984;5.088;2022-12-17T15:43:51;94.93;;;32.83;;
69625;SDS011;56847;51.984;5.088;2022-12-17T15:46:19;74.65;;;26.38;;
69625;SDS011;56847;51.984;5.088;2022-12-17T15:48:46;78.33;;;28.93;;
69625;SDS011;56847;51.984;5.088;2022-12-17T15:51:16;84.50;;;29.13;;
69625;SDS011;56847;51.984;5.088;2022-12-17T15:53:46;90.55;;;33.67;;
69625;SDS011;56847;51.984;5.088;2022-12-17T15:56:16;92.60;;;31.88;;
69625;SDS011;56847;51.984;5.088;2022-12-17T15:58:46;88.90;;;30.55;;
69625;SDS011;56847;51.984;5.088;2022-12-17T16:01:13;85.00;;;29.77;;
69625;SDS011;56847;51.984;5.088;2022-12-17T16:03:41;87.78;;;31.02;;
69625;SDS011;56847;51.984;5.088;2022-12-17T16:06:09;82.32;;;29.67;;
69625;SDS011;56847;51.984;5.088;2022-12-17T16:08:37;83.07;;;28.88;;
69625;SDS011;56847;51.984;5.088;2022-12-17T16:11:09;83.15;;;29.98;;
69625;SDS011;56847;51.984;5.088;2022-12-17T16:13:37;79.97;;;29.37;;
69625;SDS011;56847;51.984;5.088;2022-12-17T16:16:05;76.45;;;27.67;;
69625;SDS011;56847;51.984;5.088;2022-12-17T16:18:34;91.97;;;30.65;;
69625;SDS011;56847;51.984;5.088;2022-12-17T16:21:02;86.65;;;31.75;;
69625;SDS011;56847;51.984;5.088;2022-12-17T16:23:33;82.82;;;31.08;;
69625;SDS011;56847;51.984;5.088;2022-12-17T16:26:03;86.97;;;29.27;;
69625;SDS011;56847;51.984;5.088;2022-12-17T16:28:36;79.75;;;28.63;;
69625;SDS011;56847;51.984;5.088;2022-12-17T16:31:05;76.50;;;27.80;;
69625;SDS011;56847;51.984;5.088;2022-12-17T16:33:37;70.00;;;25.88;;
69625;SDS011;56847;51.984;5.088;2022-12-17T16:36:07;82.32;;;29.40;;
69625;SDS011;56847;51.984;5.088;2022-12-17T16:38:44;78.50;;;28.57;;
69625;SDS011;56847;51.984;5.088;2022-12-17T16:41:14;77.32;;;26.88;;
69625;SDS011;56847;51.984;5.088;2022-12-17T16:43:45;79.50;;;28.10;;
69625;SDS011;56847;51.984;5.088;2022-12-17T16:48:56;85.45;;;30.35;;
69625;SDS011;56847;51.984;5.088;2022-12-17T16:51:29;80.57;;;27.47;;
69625;SDS011;56847;51.984;5.088;2022-12-17T16:53:57;81.22;;;29.65;;
69625;SDS011;56847;51.984;5.088;2022-12-17T16:56:26;73.43;;;28.33;;
69625;SDS011;56847;51.984;5.088;2022-12-17T16:58:54;74.38;;;25.92;;
69625;SDS011;56847;51.984;5.088;2022-12-17T17:01:26;80.10;;;28.92;;
69625;SDS011;56847;51.984;5.088;2022-12-17T17:03:55;71.97;;;26.93;;
69625;SDS011;56847;51.984;5.088;2022-12-17T17:06:23;80.80;;;29.17;;
69625;SDS011;56847;51.984;5.088;2022-12-17T17:09:02;90.25;;;29.48;;
69625;SDS011;56847;51.984;5.088;2022-12-17T17:11:35;80.20;;;28.48;;
69625;SDS011;56847;51.984;5.088;2022-12-17T17:14:06;87.43;;;28.35;;
69625;SDS011;56847;51.984;5.088;2022-12-17T17:16:35;73.90;;;26.17;;
69625;SDS011;56847;51.984;5.088;2022-12-17T17:19:03;81.72;;;29.08;;
69625;SDS011;56847;51.984;5.088;2022-12-17T17:21:46;79.55;;;29.17;;
69625;SDS011;56847;51.984;5.088;2022-12-17T17:24:37;85.55;;;28.10;;
69625;SDS011;56847;51.984;5.088;2022-12-17T17:27:20;80.50;;;27.83;;
69625;SDS011;56847;51.984;5.088;2022-12-17T17:29:48;88.43;;;29.67;;
69625;SDS011;56847;51.984;5.088;2022-12-17T17:32:27;86.30;;;31.05;;
69625;SDS011;56847;51.984;5.088;2022-12-17T17:34:55;84.03;;;28.40;;
69625;SDS011;56847;51.984;5.088;2022-12-17T17:37:25;87.18;;;30.05;;
69625;SDS011;56847;51.984;5.088;2022-12-17T17:39:53;82.68;;;28.33;;
69625;SDS011;56847;51.984;5.088;2022-12-17T17:42:20;86.67;;;27.83;;
69625;SDS011;56847;51.984;5.088;2022-12-17T17:44:48;88.47;;;31.05;;
69625;SDS011;56847;51.984;5.088;2022-12-17T17:47:15;92.75;;;30.77;;
69625;SDS011;56847;51.984;5.088;2022-12-17T17:49:57;84.03;;;29.25;;